This is the latest recevied weather packets stored in our database for station/object SP2JGY-2. If no packets are shown the sender has not sent any weather packets the latest 10 day(s).
| Time | Temp. | Humidity | Pressure | Rain* | Wind** | Luminosity | Snow |
|---|---|---|---|---|---|---|---|
| 1777781402 | 12.22° C | 56% | 1015.6 hPa | - | - | - | - |
| 1777780502 | 11.67° C | 57% | 1015.6 hPa | - | - | - | - |
| 1777779602 | 11.67° C | 57% | 1015.7 hPa | - | - | - | - |
| 1777778702 | 11.67° C | 57% | 1015.6 hPa | - | - | - | - |
| 1777777801 | 11.67° C | 55% | 1015.7 hPa | - | - | - | - |
| 1777776901 | 12.22° C | 54% | 1015.7 hPa | - | - | - | - |
| 1777776001 | 11.67° C | 54% | 1015.7 hPa | - | - | - | - |
| 1777775101 | 12.22° C | 53% | 1015.9 hPa | - | - | - | - |
| 1777773301 | 12.22° C | 53% | 1015.9 hPa | - | - | - | - |
| 1777767900 | 12.78° C | 53% | 1016.3 hPa | - | - | - | - |
| 1777766102 | 13.33° C | 50% | 1016.4 hPa | - | - | - | - |
| 1777763399 | 14.44° C | 48% | 1016.6 hPa | - | - | - | - |
| 1777760698 | 15.56° C | 43% | 1016.7 hPa | - | - | - | - |
| 1777759798 | 16.11° C | 42% | 1016.8 hPa | - | - | - | - |
| 1777757998 | 16.67° C | 39% | 1016.9 hPa | - | - | - | - |
| 1777757097 | 17.22° C | 39% | 1016.9 hPa | - | - | - | - |
| 1777756197 | 17.22° C | 38% | 1016.9 hPa | - | - | - | - |
| 1777755297 | 17.78° C | 38% | 1016.9 hPa | - | - | - | - |
| 1777753497 | 18.33° C | 36% | 1016.9 hPa | - | - | - | - |
| 1777752597 | 18.33° C | 35% | 1016.9 hPa | - | - | - | - |
| 1777748999 | 19.44° C | 30% | 1016.8 hPa | - | - | - | - |
| 1777748098 | 20° C | 28% | 1016.8 hPa | - | - | - | - |
| 1777747197 | 21.11° C | 26% | 1016.7 hPa | - | - | - | - |
| 1777746296 | 22.22° C | 24% | 1016.7 hPa | - | - | - | - |
| 1777745395 | 22.78° C | 23% | 1016.6 hPa | - | - | - | - |
* Rain since midnight (hover to see other rain measurements)
** Current wind speed in m/s (hover to see current wind gust speed)